sensor_id;sensor_type;location;lat;lon;timestamp;temperature;humidity
41756;DHT22;27435;48.480;9.258;2023-04-15T00:00:40;2.90;99.00
41756;DHT22;27435;48.480;9.258;2023-04-15T00:03:06;2.90;99.00
41756;DHT22;27435;48.480;9.258;2023-04-15T00:05:33;2.80;99.00
41756;DHT22;27435;48.480;9.258;2023-04-15T00:08:00;2.80;99.00
41756;DHT22;27435;48.480;9.258;2023-04-15T00:10:26;2.90;99.00
41756;DHT22;27435;48.480;9.258;2023-04-15T00:12:53;2.90;99.00
41756;DHT22;27435;48.480;9.258;2023-04-15T00:15:18;3.00;99.00
41756;DHT22;27435;48.480;9.258;2023-04-15T00:17:44;2.90;99.00
41756;DHT22;27435;48.480;9.258;2023-04-15T00:20:10;2.80;99.00
41756;DHT22;27435;48.480;9.258;2023-04-15T00:22:36;2.90;99.00
41756;DHT22;27435;48.480;9.258;2023-04-15T00:25:02;3.00;99.00
41756;DHT22;27435;48.480;9.258;2023-04-15T00:27:27;3.10;99.00
41756;DHT22;27435;48.480;9.258;2023-04-15T00:29:54;3.10;99.00
41756;DHT22;27435;48.480;9.258;2023-04-15T00:32:19;2.90;99.00
41756;DHT22;27435;48.480;9.258;2023-04-15T00:34:45;2.90;99.00
41756;DHT22;27435;48.480;9.258;2023-04-15T00:37:11;2.90;99.00
41756;DHT22;27435;48.480;9.258;2023-04-15T00:39:37;3.00;99.00
41756;DHT22;27435;48.480;9.258;2023-04-15T00:42:05;3.00;99.00
41756;DHT22;27435;48.480;9.258;2023-04-15T00:44:31;3.00;99.00
41756;DHT22;27435;48.480;9.258;2023-04-15T00:46:59;2.90;99.00
41756;DHT22;27435;48.480;9.258;2023-04-15T00:49:24;2.80;99.00
41756;DHT22;27435;48.480;9.258;2023-04-15T00:51:51;2.80;99.00
41756;DHT22;27435;48.480;9.258;2023-04-15T00:54:17;2.70;99.00
41756;DHT22;27435;48.480;9.258;2023-04-15T00:56:42;2.50;99.00
41756;DHT22;27435;48.480;9.258;2023-04-15T00:59:08;2.50;99.00
41756;DHT22;27435;48.480;9.258;2023-04-15T01:01:35;2.50;99.00
41756;DHT22;27435;48.480;9.258;2023-04-15T01:04:01;2.50;99.00
41756;DHT22;27435;48.480;9.258;2023-04-15T01:06:27;2.50;99.00
41756;DHT22;27435;48.480;9.258;2023-04-15T01:08:54;2.50;99.00
41756;DHT22;27435;48.480;9.258;2023-04-15T01:11:20;2.50;99.00
41756;DHT22;27435;48.480;9.258;2023-04-15T01:13:46;2.40;99.00
41756;DHT22;27435;48.480;9.258;2023-04-15T01:16:13;2.40;99.00
41756;DHT22;27435;48.480;9.258;2023-04-15T01:18:39;2.50;99.00
41756;DHT22;27435;48.480;9.258;2023-04-15T01:21:05;2.40;99.00
41756;DHT22;27435;48.480;9.258;2023-04-15T01:23:32;2.40;99.00
41756;DHT22;27435;48.480;9.258;2023-04-15T01:25:58;2.20;99.00
41756;DHT22;27435;48.480;9.258;2023-04-15T01:28:24;2.10;99.00
41756;DHT22;27435;48.480;9.258;2023-04-15T01:31:14;2.00;99.00
41756;DHT22;27435;48.480;9.258;2023-04-15T01:33:40;1.90;99.00
41756;DHT22;27435;48.480;9.258;2023-04-15T01:36:07;1.90;99.00
41756;DHT22;27435;48.480;9.258;2023-04-15T01:38:35;1.80;99.00
41756;DHT22;27435;48.480;9.258;2023-04-15T01:41:01;1.80;99.00
41756;DHT22;27435;48.480;9.258;2023-04-15T01:43:29;1.90;99.00
41756;DHT22;27435;48.480;9.258;2023-04-15T01:45:55;2.00;99.00
41756;DHT22;27435;48.480;9.258;2023-04-15T01:48:21;2.10;99.00
41756;DHT22;27435;48.480;9.258;2023-04-15T01:50:47;2.10;99.00
41756;DHT22;27435;48.480;9.258;2023-04-15T01:53:13;2.10;99.00
41756;DHT22;27435;48.480;9.258;2023-04-15T01:55:40;2.00;99.00
41756;DHT22;27435;48.480;9.258;2023-04-15T01:58:06;1.90;99.00
41756;DHT22;27435;48.480;9.258;2023-04-15T02:00:32;2.00;99.00
41756;DHT22;27435;48.480;9.258;2023-04-15T02:02:57;1.90;99.00
41756;DHT22;27435;48.480;9.258;2023-04-15T02:05:24;1.90;99.00
41756;DHT22;27435;48.480;9.258;2023-04-15T02:07:50;1.70;99.00
41756;DHT22;27435;48.480;9.258;2023-04-15T02:10:15;1.60;99.00
41756;DHT22;27435;48.480;9.258;2023-04-15T02:12:41;1.70;99.00
41756;DHT22;27435;48.480;9.258;2023-04-15T02:15:08;1.70;99.00
41756;DHT22;27435;48.480;9.258;2023-04-15T02:17:35;1.80;99.00
41756;DHT22;27435;48.480;9.258;2023-04-15T02:20:00;1.90;99.00
41756;DHT22;27435;48.480;9.258;2023-04-15T02:22:26;1.70;99.00
41756;DHT22;27435;48.480;9.258;2023-04-15T02:24:52;1.60;99.00
41756;DHT22;27435;48.480;9.258;2023-04-15T02:27:18;1.50;99.00
41756;DHT22;27435;48.480;9.258;2023-04-15T02:29:44;1.40;99.00
41756;DHT22;27435;48.480;9.258;2023-04-15T02:32:13;1.40;99.00
41756;DHT22;27435;48.480;9.258;2023-04-15T02:34:39;1.50;99.00
41756;DHT22;27435;48.480;9.258;2023-04-15T02:37:07;1.50;99.00
41756;DHT22;27435;48.480;9.258;2023-04-15T02:39:33;1.50;99.00
41756;DHT22;27435;48.480;9.258;2023-04-15T02:41:59;1.50;99.00
41756;DHT22;27435;48.480;9.258;2023-04-15T02:44:25;1.50;99.00
41756;DHT22;27435;48.480;9.258;2023-04-15T02:46:52;1.60;99.00
41756;DHT22;27435;48.480;9.258;2023-04-15T02:49:19;1.60;99.00
41756;DHT22;27435;48.480;9.258;2023-04-15T02:51:46;1.60;99.00
41756;DHT22;27435;48.480;9.258;2023-04-15T02:54:15;1.60;99.00
41756;DHT22;27435;48.480;9.258;2023-04-15T02:56:40;1.70;99.00
41756;DHT22;27435;48.480;9.258;2023-04-15T02:59:06;1.80;99.00
41756;DHT22;27435;48.480;9.258;2023-04-15T03:01:32;1.60;99.00
41756;DHT22;27435;48.480;9.258;2023-04-15T03:03:57;1.40;99.00
41756;DHT22;27435;48.480;9.258;2023-04-15T03:06:23;1.40;99.00
41756;DHT22;27435;48.480;9.258;2023-04-15T03:08:49;1.30;99.00
41756;DHT22;27435;48.480;9.258;2023-04-15T03:11:15;1.30;99.00
41756;DHT22;27435;48.480;9.258;2023-04-15T03:13:41;1.30;99.00
41756;DHT22;27435;48.480;9.258;2023-04-15T03:16:08;1.10;99.00
41756;DHT22;27435;48.480;9.258;2023-04-15T03:18:33;1.00;99.00
41756;DHT22;27435;48.480;9.258;2023-04-15T03:20:59;0.90;99.00
41756;DHT22;27435;48.480;9.258;2023-04-15T03:23:24;0.90;99.00
41756;DHT22;27435;48.480;9.258;2023-04-15T03:25:50;1.00;99.00
41756;DHT22;27435;48.480;9.258;2023-04-15T03:28:16;1.10;99.00
41756;DHT22;27435;48.480;9.258;2023-04-15T03:30:41;1.00;99.00
41756;DHT22;27435;48.480;9.258;2023-04-15T03:33:07;0.90;99.00
41756;DHT22;27435;48.480;9.258;2023-04-15T03:35:33;0.90;99.00
41756;DHT22;27435;48.480;9.258;2023-04-15T03:37:59;0.80;99.00
41756;DHT22;27435;48.480;9.258;2023-04-15T03:40:24;0.90;99.00
41756;DHT22;27435;48.480;9.258;2023-04-15T03:42:50;0.90;99.00
41756;DHT22;27435;48.480;9.258;2023-04-15T03:45:16;0.80;99.00
41756;DHT22;27435;48.480;9.258;2023-04-15T03:47:41;0.90;99.00
41756;DHT22;27435;48.480;9.258;2023-04-15T03:50:07;0.90;99.00
41756;DHT22;27435;48.480;9.258;2023-04-15T03:52:33;0.90;99.00
41756;DHT22;27435;48.480;9.258;2023-04-15T03:54:59;0.80;99.00
41756;DHT22;27435;48.480;9.258;2023-04-15T03:57:24;0.80;99.00
41756;DHT22;27435;48.480;9.258;2023-04-15T03:59:50;0.80;99.00
41756;DHT22;27435;48.480;9.258;2023-04-15T04:02:15;0.70;99.00
41756;DHT22;27435;48.480;9.258;2023-04-15T04:04:41;0.60;99.00
41756;DHT22;27435;48.480;9.258;2023-04-15T04:07:08;0.50;99.00
41756;DHT22;27435;48.480;9.258;2023-04-15T04:09:33;0.50;99.00
41756;DHT22;27435;48.480;9.258;2023-04-15T04:11:59;0.60;99.00
41756;DHT22;27435;48.480;9.258;2023-04-15T04:14:25;0.70;99.00
41756;DHT22;27435;48.480;9.258;2023-04-15T04:16:54;0.70;99.00
41756;DHT22;27435;48.480;9.258;2023-04-15T04:19:20;0.70;99.00
41756;DHT22;27435;48.480;9.258;2023-04-15T04:21:45;0.70;99.00
41756;DHT22;27435;48.480;9.258;2023-04-15T04:24:11;0.70;99.00
41756;DHT22;27435;48.480;9.258;2023-04-15T04:26:37;0.70;99.00
41756;DHT22;27435;48.480;9.258;2023-04-15T04:29:02;0.80;99.00
41756;DHT22;27435;48.480;9.258;2023-04-15T04:31:28;1.00;99.00
41756;DHT22;27435;48.480;9.258;2023-04-15T04:33:53;1.00;99.00
41756;DHT22;27435;48.480;9.258;2023-04-15T04:36:19;0.80;99.00
41756;DHT22;27435;48.480;9.258;2023-04-15T04:38:45;0.80;99.00
41756;DHT22;27435;48.480;9.258;2023-04-15T04:41:10;0.70;99.00
41756;DHT22;27435;48.480;9.258;2023-04-15T04:43:36;0.70;99.00
41756;DHT22;27435;48.480;9.258;2023-04-15T04:46:01;0.70;99.00
41756;DHT22;27435;48.480;9.258;2023-04-15T04:48:27;0.60;99.00
41756;DHT22;27435;48.480;9.258;2023-04-15T04:50:53;0.70;99.00
41756;DHT22;27435;48.480;9.258;2023-04-15T04:53:18;0.70;99.00
41756;DHT22;27435;48.480;9.258;2023-04-15T04:55:44;0.70;99.00
41756;DHT22;27435;48.480;9.258;2023-04-15T04:58:10;0.80;99.00
41756;DHT22;27435;48.480;9.258;2023-04-15T05:00:36;0.80;99.00
41756;DHT22;27435;48.480;9.258;2023-04-15T05:03:02;0.70;99.00
41756;DHT22;27435;48.480;9.258;2023-04-15T05:05:28;0.70;99.00
41756;DHT22;27435;48.480;9.258;2023-04-15T05:07:54;0.90;99.00
41756;DHT22;27435;48.480;9.258;2023-04-15T05:10:19;0.90;99.00
41756;DHT22;27435;48.480;9.258;2023-04-15T05:12:46;1.00;99.00
41756;DHT22;27435;48.480;9.258;2023-04-15T05:15:11;0.90;99.00
41756;DHT22;27435;48.480;9.258;2023-04-15T05:17:37;0.90;99.00
41756;DHT22;27435;48.480;9.258;2023-04-15T05:20:03;0.90;99.00
41756;DHT22;27435;48.480;9.258;2023-04-15T05:22:28;0.90;99.00
41756;DHT22;27435;48.480;9.258;2023-04-15T05:24:54;1.00;99.00
41756;DHT22;27435;48.480;9.258;2023-04-15T05:27:20;1.20;99.00
41756;DHT22;27435;48.480;9.258;2023-04-15T05:29:47;1.20;99.00
41756;DHT22;27435;48.480;9.258;2023-04-15T05:32:12;1.40;99.00
41756;DHT22;27435;48.480;9.258;2023-04-15T05:34:38;1.20;99.00
41756;DHT22;27435;48.480;9.258;2023-04-15T05:37:03;1.20;99.00
41756;DHT22;27435;48.480;9.258;2023-04-15T05:39:29;1.20;99.00
41756;DHT22;27435;48.480;9.258;2023-04-15T05:41:56;1.30;99.00
41756;DHT22;27435;48.480;9.258;2023-04-15T05:44:22;1.30;99.00
41756;DHT22;27435;48.480;9.258;2023-04-15T05:46:48;1.30;99.00
41756;DHT22;27435;48.480;9.258;2023-04-15T05:49:14;1.40;99.00
41756;DHT22;27435;48.480;9.258;2023-04-15T05:51:39;1.40;99.00
41756;DHT22;27435;48.480;9.258;2023-04-15T05:54:05;1.80;99.00
41756;DHT22;27435;48.480;9.258;2023-04-15T05:56:31;2.10;99.00
41756;DHT22;27435;48.480;9.258;2023-04-15T05:58:56;2.30;99.00
41756;DHT22;27435;48.480;9.258;2023-04-15T06:01:22;2.50;99.00
41756;DHT22;27435;48.480;9.258;2023-04-15T06:03:48;2.90;99.00
41756;DHT22;27435;48.480;9.258;2023-04-15T06:06:14;3.20;99.00
41756;DHT22;27435;48.480;9.258;2023-04-15T06:08:40;3.90;99.00
41756;DHT22;27435;48.480;9.258;2023-04-15T06:11:06;4.60;99.00
41756;DHT22;27435;48.480;9.258;2023-04-15T06:13:32;4.50;99.00
41756;DHT22;27435;48.480;9.258;2023-04-15T06:15:58;4.30;99.00
41756;DHT22;27435;48.480;9.258;2023-04-15T06:18:24;4.30;99.00
41756;DHT22;27435;48.480;9.258;2023-04-15T06:20:49;4.40;99.00
41756;DHT22;27435;48.480;9.258;2023-04-15T06:23:16;4.80;99.00
41756;DHT22;27435;48.480;9.258;2023-04-15T06:25:41;4.80;99.00
41756;DHT22;27435;48.480;9.258;2023-04-15T06:28:07;4.80;99.00
41756;DHT22;27435;48.480;9.258;2023-04-15T06:30:33;5.20;99.00
41756;DHT22;27435;48.480;9.258;2023-04-15T06:33:00;5.80;99.00
41756;DHT22;27435;48.480;9.258;2023-04-15T06:35:27;6.10;99.00
41756;DHT22;27435;48.480;9.258;2023-04-15T06:37:53;6.30;99.00
41756;DHT22;27435;48.480;9.258;2023-04-15T06:40:18;6.50;98.80
41756;DHT22;27435;48.480;9.258;2023-04-15T06:42:44;6.90;97.00
41756;DHT22;27435;48.480;9.258;2023-04-15T06:45:10;6.90;95.90
41756;DHT22;27435;48.480;9.258;2023-04-15T06:47:36;7.20;94.80
41756;DHT22;27435;48.480;9.258;2023-04-15T06:50:01;7.30;93.90
41756;DHT22;27435;48.480;9.258;2023-04-15T06:52:28;7.30;93.70
41756;DHT22;27435;48.480;9.258;2023-04-15T06:54:53;7.40;93.60
41756;DHT22;27435;48.480;9.258;2023-04-15T06:57:19;7.60;93.10
41756;DHT22;27435;48.480;9.258;2023-04-15T06:59:45;7.80;92.20
41756;DHT22;27435;48.480;9.258;2023-04-15T07:02:12;7.90;90.70
41756;DHT22;27435;48.480;9.258;2023-04-15T07:04:38;7.90;90.40
41756;DHT22;27435;48.480;9.258;2023-04-15T07:07:05;7.80;91.10
41756;DHT22;27435;48.480;9.258;2023-04-15T07:09:30;7.90;90.70
41756;DHT22;27435;48.480;9.258;2023-04-15T07:11:56;7.90;90.10
41756;DHT22;27435;48.480;9.258;2023-04-15T07:14:22;8.00;89.50
41756;DHT22;27435;48.480;9.258;2023-04-15T07:16:48;8.00;88.80
41756;DHT22;27435;48.480;9.258;2023-04-15T07:19:13;8.00;89.10
41756;DHT22;27435;48.480;9.258;2023-04-15T07:21:39;8.00;88.70
41756;DHT22;27435;48.480;9.258;2023-04-15T07:24:04;7.80;89.60
41756;DHT22;27435;48.480;9.258;2023-04-15T07:26:31;8.20;88.70
41756;DHT22;27435;48.480;9.258;2023-04-15T07:28:56;8.30;87.90
41756;DHT22;27435;48.480;9.258;2023-04-15T07:31:22;8.40;87.80
41756;DHT22;27435;48.480;9.258;2023-04-15T07:33:47;8.60;86.90
41756;DHT22;27435;48.480;9.258;2023-04-15T07:36:13;8.60;87.00
41756;DHT22;27435;48.480;9.258;2023-04-15T07:38:39;8.80;86.70
41756;DHT22;27435;48.480;9.258;2023-04-15T07:41:05;8.90;85.90
41756;DHT22;27435;48.480;9.258;2023-04-15T07:43:31;9.10;85.30
41756;DHT22;27435;48.480;9.258;2023-04-15T07:45:57;9.30;84.50
41756;DHT22;27435;48.480;9.258;2023-04-15T07:48:22;9.20;84.00
41756;DHT22;27435;48.480;9.258;2023-04-15T07:50:51;9.30;84.50
41756;DHT22;27435;48.480;9.258;2023-04-15T07:53:17;9.30;85.10
41756;DHT22;27435;48.480;9.258;2023-04-15T07:55:42;9.60;84.90
41756;DHT22;27435;48.480;9.258;2023-04-15T07:58:08;9.80;84.70
41756;DHT22;27435;48.480;9.258;2023-04-15T08:00:33;10.00;83.70
41756;DHT22;27435;48.480;9.258;2023-04-15T08:02:59;10.40;81.60
41756;DHT22;27435;48.480;9.258;2023-04-15T08:05:25;10.40;80.70
41756;DHT22;27435;48.480;9.258;2023-04-15T08:07:50;10.30;81.80
41756;DHT22;27435;48.480;9.258;2023-04-15T08:10:16;10.30;80.30
41756;DHT22;27435;48.480;9.258;2023-04-15T08:12:42;10.50;78.60
41756;DHT22;27435;48.480;9.258;2023-04-15T08:15:08;10.60;77.50
41756;DHT22;27435;48.480;9.258;2023-04-15T08:17:34;10.60;78.10
41756;DHT22;27435;48.480;9.258;2023-04-15T08:19:59;10.90;76.20
41756;DHT22;27435;48.480;9.258;2023-04-15T08:22:25;11.20;75.30
41756;DHT22;27435;48.480;9.258;2023-04-15T08:24:51;11.30;74.00
41756;DHT22;27435;48.480;9.258;2023-04-15T08:27:17;11.30;74.50
41756;DHT22;27435;48.480;9.258;2023-04-15T08:29:43;11.10;74.30
41756;DHT22;27435;48.480;9.258;2023-04-15T08:32:10;11.20;74.90
41756;DHT22;27435;48.480;9.258;2023-04-15T08:34:35;11.40;74.30
41756;DHT22;27435;48.480;9.258;2023-04-15T08:37:01;11.60;74.20
41756;DHT22;27435;48.480;9.258;2023-04-15T08:39:26;12.00;73.50
41756;DHT22;27435;48.480;9.258;2023-04-15T08:42:00;12.10;71.30
41756;DHT22;27435;48.480;9.258;2023-04-15T08:44:33;12.30;70.20
41756;DHT22;27435;48.480;9.258;2023-04-15T08:47:02;12.40;68.40
41756;DHT22;27435;48.480;9.258;2023-04-15T08:49:28;12.30;69.50
41756;DHT22;27435;48.480;9.258;2023-04-15T08:51:54;12.40;69.00
41756;DHT22;27435;48.480;9.258;2023-04-15T08:54:22;12.40;69.40
41756;DHT22;27435;48.480;9.258;2023-04-15T08:56:48;12.50;68.40
41756;DHT22;27435;48.480;9.258;2023-04-15T08:59:14;12.60;67.80
41756;DHT22;27435;48.480;9.258;2023-04-15T09:01:41;12.70;67.50
41756;DHT22;27435;48.480;9.258;2023-04-15T09:04:07;12.80;67.80
41756;DHT22;27435;48.480;9.258;2023-04-15T09:06:33;13.10;67.80
41756;DHT22;27435;48.480;9.258;2023-04-15T09:08:58;13.20;67.50
41756;DHT22;27435;48.480;9.258;2023-04-15T09:11:24;13.20;67.00
41756;DHT22;27435;48.480;9.258;2023-04-15T09:13:50;13.20;67.90
41756;DHT22;27435;48.480;9.258;2023-04-15T09:16:16;13.50;66.60
41756;DHT22;27435;48.480;9.258;2023-04-15T09:18:43;13.80;65.70
41756;DHT22;27435;48.480;9.258;2023-04-15T09:21:14;14.20;65.70
41756;DHT22;27435;48.480;9.258;2023-04-15T09:23:52;14.20;65.70
41756;DHT22;27435;48.480;9.258;2023-04-15T09:26:18;14.00;63.90
41756;DHT22;27435;48.480;9.258;2023-04-15T09:28:43;13.90;64.60
41756;DHT22;27435;48.480;9.258;2023-04-15T09:31:09;14.00;62.10
41756;DHT22;27435;48.480;9.258;2023-04-15T09:33:35;14.10;61.40
41756;DHT22;27435;48.480;9.258;2023-04-15T09:36:18;13.80;60.60
41756;DHT22;27435;48.480;9.258;2023-04-15T09:39:03;13.20;61.90
41756;DHT22;27435;48.480;9.258;2023-04-15T09:41:29;13.00;62.90
41756;DHT22;27435;48.480;9.258;2023-04-15T09:43:55;12.80;62.70
41756;DHT22;27435;48.480;9.258;2023-04-15T09:46:40;12.70;63.60
41756;DHT22;27435;48.480;9.258;2023-04-15T09:49:08;12.80;64.00
41756;DHT22;27435;48.480;9.258;2023-04-15T09:51:34;13.00;63.40
41756;DHT22;27435;48.480;9.258;2023-04-15T09:54:00;13.00;62.80
41756;DHT22;27435;48.480;9.258;2023-04-15T09:56:33;12.90;63.10
41756;DHT22;27435;48.480;9.258;2023-04-15T09:58:59;12.90;63.70
41756;DHT22;27435;48.480;9.258;2023-04-15T10:01:25;12.80;63.90
41756;DHT22;27435;48.480;9.258;2023-04-15T10:03:51;12.90;61.90
41756;DHT22;27435;48.480;9.258;2023-04-15T10:06:17;13.10;62.20
41756;DHT22;27435;48.480;9.258;2023-04-15T10:08:42;13.50;61.90
41756;DHT22;27435;48.480;9.258;2023-04-15T10:11:08;13.70;61.50
41756;DHT22;27435;48.480;9.258;2023-04-15T10:13:35;13.60;61.70
41756;DHT22;27435;48.480;9.258;2023-04-15T10:16:06;13.60;62.20
41756;DHT22;27435;48.480;9.258;2023-04-15T10:18:37;13.50;63.00
41756;DHT22;27435;48.480;9.258;2023-04-15T10:21:06;13.70;63.10
41756;DHT22;27435;48.480;9.258;2023-04-15T10:23:33;14.00;62.30
41756;DHT22;27435;48.480;9.258;2023-04-15T10:25:59;13.60;62.90
41756;DHT22;27435;48.480;9.258;2023-04-15T10:28:25;13.60;61.90
41756;DHT22;27435;48.480;9.258;2023-04-15T10:30:51;13.70;61.80
41756;DHT22;27435;48.480;9.258;2023-04-15T10:33:20;13.80;61.10
41756;DHT22;27435;48.480;9.258;2023-04-15T10:35:47;13.90;60.90
41756;DHT22;27435;48.480;9.258;2023-04-15T10:38:34;14.10;60.40
41756;DHT22;27435;48.480;9.258;2023-04-15T10:41:25;14.90;59.90
41756;DHT22;27435;48.480;9.258;2023-04-15T10:44:02;14.20;60.80
41756;DHT22;27435;48.480;9.258;2023-04-15T10:46:45;13.90;61.80
41756;DHT22;27435;48.480;9.258;2023-04-15T10:49:16;13.80;61.10
41756;DHT22;27435;48.480;9.258;2023-04-15T10:51:45;13.60;61.80
41756;DHT22;27435;48.480;9.258;2023-04-15T10:54:16;13.80;62.60
41756;DHT22;27435;48.480;9.258;2023-04-15T10:56:47;13.80;63.50
41756;DHT22;27435;48.480;9.258;2023-04-15T10:59:15;13.30;63.30
41756;DHT22;27435;48.480;9.258;2023-04-15T11:01:53;12.90;64.40
41756;DHT22;27435;48.480;9.258;2023-04-15T11:04:55;12.60;65.60
41756;DHT22;27435;48.480;9.258;2023-04-15T11:12:46;12.30;66.00
41756;DHT22;27435;48.480;9.258;2023-04-15T11:15:40;12.10;67.00
41756;DHT22;27435;48.480;9.258;2023-04-15T11:18:14;12.10;67.40
41756;DHT22;27435;48.480;9.258;2023-04-15T11:20:53;12.10;68.80
41756;DHT22;27435;48.480;9.258;2023-04-15T11:25:57;12.30;67.70
41756;DHT22;27435;48.480;9.258;2023-04-15T11:28:27;12.40;67.60
41756;DHT22;27435;48.480;9.258;2023-04-15T11:30:53;12.70;66.60
41756;DHT22;27435;48.480;9.258;2023-04-15T11:33:20;13.10;65.00
41756;DHT22;27435;48.480;9.258;2023-04-15T11:35:47;13.50;64.70
41756;DHT22;27435;48.480;9.258;2023-04-15T11:38:13;13.70;64.30
41756;DHT22;27435;48.480;9.258;2023-04-15T11:40:40;13.70;64.10
41756;DHT22;27435;48.480;9.258;2023-04-15T11:43:19;13.30;65.60
41756;DHT22;27435;48.480;9.258;2023-04-15T11:48:22;13.10;63.40
41756;DHT22;27435;48.480;9.258;2023-04-15T11:51:03;13.00;64.20
41756;DHT22;27435;48.480;9.258;2023-04-15T11:53:42;12.90;62.70
41756;DHT22;27435;48.480;9.258;2023-04-15T11:56:09;12.70;62.80
41756;DHT22;27435;48.480;9.258;2023-04-15T11:58:36;12.80;62.50
41756;DHT22;27435;48.480;9.258;2023-04-15T12:01:04;13.30;62.50
41756;DHT22;27435;48.480;9.258;2023-04-15T12:03:35;14.30;60.50
41756;DHT22;27435;48.480;9.258;2023-04-15T12:06:20;14.50;57.40
41756;DHT22;27435;48.480;9.258;2023-04-15T12:13:53;13.40;58.70
41756;DHT22;27435;48.480;9.258;2023-04-15T12:16:20;13.00;60.20
41756;DHT22;27435;48.480;9.258;2023-04-15T12:18:49;13.20;60.30
41756;DHT22;27435;48.480;9.258;2023-04-15T12:21:18;13.50;60.50
41756;DHT22;27435;48.480;9.258;2023-04-15T12:23:51;13.60;60.00
41756;DHT22;27435;48.480;9.258;2023-04-15T12:26:25;13.60;60.10
41756;DHT22;27435;48.480;9.258;2023-04-15T12:29:01;13.60;60.80
41756;DHT22;27435;48.480;9.258;2023-04-15T12:31:27;13.70;61.00
41756;DHT22;27435;48.480;9.258;2023-04-15T12:33:56;13.90;60.60
41756;DHT22;27435;48.480;9.258;2023-04-15T12:36:22;13.80;60.30
41756;DHT22;27435;48.480;9.258;2023-04-15T12:38:48;13.90;61.60
41756;DHT22;27435;48.480;9.258;2023-04-15T12:41:14;14.40;61.60
41756;DHT22;27435;48.480;9.258;2023-04-15T12:43:42;14.60;61.00
41756;DHT22;27435;48.480;9.258;2023-04-15T12:46:08;14.70;60.50
41756;DHT22;27435;48.480;9.258;2023-04-15T12:48:34;14.70;60.20
41756;DHT22;27435;48.480;9.258;2023-04-15T12:51:00;14.70;59.30
41756;DHT22;27435;48.480;9.258;2023-04-15T12:53:26;14.40;60.60
41756;DHT22;27435;48.480;9.258;2023-04-15T12:55:53;14.00;62.30
41756;DHT22;27435;48.480;9.258;2023-04-15T12:58:18;13.50;64.20
41756;DHT22;27435;48.480;9.258;2023-04-15T13:00:44;13.00;66.30
41756;DHT22;27435;48.480;9.258;2023-04-15T13:03:10;13.10;64.70
41756;DHT22;27435;48.480;9.258;2023-04-15T13:05:37;13.40;64.90
41756;DHT22;27435;48.480;9.258;2023-04-15T13:08:03;13.90;62.50
41756;DHT22;27435;48.480;9.258;2023-04-15T13:10:29;13.60;64.20
41756;DHT22;27435;48.480;9.258;2023-04-15T13:12:56;13.20;65.60
41756;DHT22;27435;48.480;9.258;2023-04-15T13:15:22;12.90;67.10
41756;DHT22;27435;48.480;9.258;2023-04-15T13:17:48;12.90;67.90
41756;DHT22;27435;48.480;9.258;2023-04-15T13:20:14;13.00;68.30
41756;DHT22;27435;48.480;9.258;2023-04-15T13:22:42;12.90;67.90
41756;DHT22;27435;48.480;9.258;2023-04-15T13:25:08;12.80;68.50
41756;DHT22;27435;48.480;9.258;2023-04-15T13:27:34;12.80;68.90
41756;DHT22;27435;48.480;9.258;2023-04-15T13:30:00;12.80;71.50
41756;DHT22;27435;48.480;9.258;2023-04-15T13:32:26;12.00;74.30
41756;DHT22;27435;48.480;9.258;2023-04-15T13:34:51;11.30;77.70
41756;DHT22;27435;48.480;9.258;2023-04-15T13:37:17;10.70;80.50
41756;DHT22;27435;48.480;9.258;2023-04-15T13:39:42;10.50;81.30
41756;DHT22;27435;48.480;9.258;2023-04-15T13:42:08;10.40;82.10
41756;DHT22;27435;48.480;9.258;2023-04-15T13:44:34;10.60;82.20
41756;DHT22;27435;48.480;9.258;2023-04-15T13:47:00;10.60;81.50
41756;DHT22;27435;48.480;9.258;2023-04-15T13:49:26;10.80;81.10
41756;DHT22;27435;48.480;9.258;2023-04-15T13:51:51;11.10;79.60
41756;DHT22;27435;48.480;9.258;2023-04-15T13:54:17;11.10;79.00
41756;DHT22;27435;48.480;9.258;2023-04-15T13:56:42;11.10;79.00
41756;DHT22;27435;48.480;9.258;2023-04-15T13:59:08;11.40;77.60
41756;DHT22;27435;48.480;9.258;2023-04-15T14:01:34;11.30;77.90
41756;DHT22;27435;48.480;9.258;2023-04-15T14:04:00;11.70;77.40
41756;DHT22;27435;48.480;9.258;2023-04-15T14:06:26;12.10;76.00
41756;DHT22;27435;48.480;9.258;2023-04-15T14:08:52;12.40;74.40
41756;DHT22;27435;48.480;9.258;2023-04-15T14:11:17;12.10;74.80
41756;DHT22;27435;48.480;9.258;2023-04-15T14:13:43;11.90;76.40
41756;DHT22;27435;48.480;9.258;2023-04-15T14:16:09;12.00;75.40
41756;DHT22;27435;48.480;9.258;2023-04-15T14:18:34;11.80;75.60
41756;DHT22;27435;48.480;9.258;2023-04-15T14:21:02;11.70;76.20
41756;DHT22;27435;48.480;9.258;2023-04-15T14:23:28;11.60;75.80
41756;DHT22;27435;48.480;9.258;2023-04-15T14:25:53;11.40;77.00
41756;DHT22;27435;48.480;9.258;2023-04-15T14:28:19;11.10;77.20
41756;DHT22;27435;48.480;9.258;2023-04-15T14:30:45;10.80;80.30
41756;DHT22;27435;48.480;9.258;2023-04-15T14:33:10;10.60;79.40
41756;DHT22;27435;48.480;9.258;2023-04-15T14:35:36;10.20;78.30
41756;DHT22;27435;48.480;9.258;2023-04-15T14:38:02;10.10;76.80
41756;DHT22;27435;48.480;9.258;2023-04-15T14:40:28;10.20;77.50
41756;DHT22;27435;48.480;9.258;2023-04-15T14:42:53;10.40;76.30
41756;DHT22;27435;48.480;9.258;2023-04-15T14:45:19;10.60;74.20
41756;DHT22;27435;48.480;9.258;2023-04-15T14:47:46;10.60;74.00
41756;DHT22;27435;48.480;9.258;2023-04-15T14:50:11;10.90;73.10
41756;DHT22;27435;48.480;9.258;2023-04-15T14:52:37;11.00;72.70
41756;DHT22;27435;48.480;9.258;2023-04-15T14:55:07;11.10;72.30
41756;DHT22;27435;48.480;9.258;2023-04-15T14:57:35;11.00;71.40
41756;DHT22;27435;48.480;9.258;2023-04-15T15:00:02;10.90;72.20
41756;DHT22;27435;48.480;9.258;2023-04-15T15:02:28;10.80;73.00
41756;DHT22;27435;48.480;9.258;2023-04-15T15:04:54;10.80;73.30
41756;DHT22;27435;48.480;9.258;2023-04-15T15:07:21;10.90;73.40
41756;DHT22;27435;48.480;9.258;2023-04-15T15:09:47;11.00;73.30
41756;DHT22;27435;48.480;9.258;2023-04-15T15:12:12;10.90;73.10
41756;DHT22;27435;48.480;9.258;2023-04-15T15:14:38;10.90;72.70
41756;DHT22;27435;48.480;9.258;2023-04-15T15:17:03;11.10;70.10
41756;DHT22;27435;48.480;9.258;2023-04-15T15:19:29;10.90;65.40
41756;DHT22;27435;48.480;9.258;2023-04-15T15:21:55;10.80;66.60
41756;DHT22;27435;48.480;9.258;2023-04-15T15:24:20;10.90;66.70
41756;DHT22;27435;48.480;9.258;2023-04-15T15:26:46;10.90;66.30
41756;DHT22;27435;48.480;9.258;2023-04-15T15:29:12;11.00;65.10
41756;DHT22;27435;48.480;9.258;2023-04-15T15:31:37;11.10;65.10
41756;DHT22;27435;48.480;9.258;2023-04-15T15:34:03;11.10;63.80
41756;DHT22;27435;48.480;9.258;2023-04-15T15:36:29;11.10;66.50
41756;DHT22;27435;48.480;9.258;2023-04-15T15:38:56;11.20;65.70
41756;DHT22;27435;48.480;9.258;2023-04-15T15:41:22;11.00;65.40
41756;DHT22;27435;48.480;9.258;2023-04-15T15:43:47;11.10;65.90
41756;DHT22;27435;48.480;9.258;2023-04-15T15:46:13;10.90;65.10
41756;DHT22;27435;48.480;9.258;2023-04-15T15:48:39;10.70;65.40
41756;DHT22;27435;48.480;9.258;2023-04-15T15:51:04;10.60;66.30